sensor_id;sensor_type;location;lat;lon;timestamp;P1;durP1;ratioP1;P2;durP2;ratioP2
55190;SDS011;41070;50.360;18.742;2023-03-01T00:00:54;51.40;;;20.90;;
55190;SDS011;41070;50.360;18.742;2023-03-01T00:03:27;59.70;;;23.90;;
55190;SDS011;41070;50.360;18.742;2023-03-01T00:05:53;42.30;;;18.80;;
55190;SDS011;41070;50.360;18.742;2023-03-01T00:08:20;49.10;;;18.90;;
55190;SDS011;41070;50.360;18.742;2023-03-01T00:10:46;44.40;;;19.80;;
55190;SDS011;41070;50.360;18.742;2023-03-01T00:13:12;45.10;;;21.00;;
55190;SDS011;41070;50.360;18.742;2023-03-01T00:15:39;42.40;;;19.60;;
55190;SDS011;41070;50.360;18.742;2023-03-01T00:18:07;50.50;;;18.70;;
55190;SDS011;41070;50.360;18.742;2023-03-01T00:20:34;47.80;;;20.50;;
55190;SDS011;41070;50.360;18.742;2023-03-01T00:23:00;49.60;;;20.30;;
55190;SDS011;41070;50.360;18.742;2023-03-01T00:25:27;39.40;;;19.50;;
55190;SDS011;41070;50.360;18.742;2023-03-01T00:27:53;55.80;;;23.10;;
55190;SDS011;41070;50.360;18.742;2023-03-01T00:30:19;46.70;;;19.60;;
55190;SDS011;41070;50.360;18.742;2023-03-01T00:32:46;37.80;;;18.60;;
55190;SDS011;41070;50.360;18.742;2023-03-01T00:35:12;49.90;;;20.10;;
55190;SDS011;41070;50.360;18.742;2023-03-01T00:37:38;46.30;;;19.50;;
55190;SDS011;41070;50.360;18.742;2023-03-01T00:40:06;41.70;;;21.10;;
55190;SDS011;41070;50.360;18.742;2023-03-01T00:42:34;48.50;;;21.80;;
55190;SDS011;41070;50.360;18.742;2023-03-01T00:45:00;57.00;;;24.20;;
55190;SDS011;41070;50.360;18.742;2023-03-01T00:47:28;52.50;;;22.30;;
55190;SDS011;41070;50.360;18.742;2023-03-01T00:49:55;56.70;;;24.10;;
55190;SDS011;41070;50.360;18.742;2023-03-01T00:52:21;49.10;;;21.30;;
55190;SDS011;41070;50.360;18.742;2023-03-01T00:54:47;43.80;;;20.00;;
55190;SDS011;41070;50.360;18.742;2023-03-01T00:57:14;39.60;;;19.00;;
55190;SDS011;41070;50.360;18.742;2023-03-01T00:59:40;43.90;;;19.40;;
55190;SDS011;41070;50.360;18.742;2023-03-01T01:02:06;46.80;;;21.10;;
55190;SDS011;41070;50.360;18.742;2023-03-01T01:04:33;44.20;;;20.20;;
55190;SDS011;41070;50.360;18.742;2023-03-01T01:09:25;34.40;;;16.40;;
55190;SDS011;41070;50.360;18.742;2023-03-01T01:11:52;38.40;;;17.60;;
55190;SDS011;41070;50.360;18.742;2023-03-01T01:14:18;35.10;;;16.60;;
55190;SDS011;41070;50.360;18.742;2023-03-01T01:16:46;30.80;;;14.80;;
55190;SDS011;41070;50.360;18.742;2023-03-01T01:21:39;32.80;;;15.40;;
55190;SDS011;41070;50.360;18.742;2023-03-01T01:24:08;28.00;;;13.40;;
55190;SDS011;41070;50.360;18.742;2023-03-01T01:26:35;32.40;;;16.40;;
55190;SDS011;41070;50.360;18.742;2023-03-01T01:31:29;37.20;;;16.80;;
55190;SDS011;41070;50.360;18.742;2023-03-01T01:33:57;45.30;;;19.10;;
55190;SDS011;41070;50.360;18.742;2023-03-01T01:36:24;41.10;;;18.40;;
55190;SDS011;41070;50.360;18.742;2023-03-01T01:38:51;35.90;;;16.70;;
55190;SDS011;41070;50.360;18.742;2023-03-01T01:41:17;39.10;;;18.90;;
55190;SDS011;41070;50.360;18.742;2023-03-01T01:43:48;49.30;;;19.30;;
55190;SDS011;41070;50.360;18.742;2023-03-01T01:46:40;43.70;;;19.80;;
55190;SDS011;41070;50.360;18.742;2023-03-01T01:49:24;51.50;;;23.20;;
55190;SDS011;41070;50.360;18.742;2023-03-01T01:51:56;45.50;;;19.80;;
55190;SDS011;41070;50.360;18.742;2023-03-01T01:54:30;50.90;;;21.50;;
55190;SDS011;41070;50.360;18.742;2023-03-01T01:57:06;45.80;;;22.10;;
55190;SDS011;41070;50.360;18.742;2023-03-01T01:59:35;55.30;;;23.00;;
55190;SDS011;41070;50.360;18.742;2023-03-01T02:02:03;54.80;;;24.20;;
55190;SDS011;41070;50.360;18.742;2023-03-01T02:04:31;55.30;;;24.40;;
55190;SDS011;41070;50.360;18.742;2023-03-01T02:07:03;50.60;;;23.00;;
55190;SDS011;41070;50.360;18.742;2023-03-01T02:09:39;57.10;;;24.00;;
55190;SDS011;41070;50.360;18.742;2023-03-01T02:12:11;57.90;;;23.50;;
55190;SDS011;41070;50.360;18.742;2023-03-01T02:14:39;45.00;;;23.00;;
55190;SDS011;41070;50.360;18.742;2023-03-01T02:17:05;48.10;;;22.50;;
55190;SDS011;41070;50.360;18.742;2023-03-01T02:28:07;47.10;;;19.80;;
55190;SDS011;41070;50.360;18.742;2023-03-01T02:30:42;34.00;;;16.60;;
55190;SDS011;41070;50.360;18.742;2023-03-01T02:33:25;35.20;;;16.90;;
55190;SDS011;41070;50.360;18.742;2023-03-01T02:35:53;45.50;;;20.20;;
55190;SDS011;41070;50.360;18.742;2023-03-01T02:38:21;41.30;;;20.00;;
55190;SDS011;41070;50.360;18.742;2023-03-01T02:40:50;54.20;;;22.30;;
55190;SDS011;41070;50.360;18.742;2023-03-01T02:43:18;49.50;;;23.40;;
55190;SDS011;41070;50.360;18.742;2023-03-01T02:45:49;51.10;;;21.70;;
55190;SDS011;41070;50.360;18.742;2023-03-01T02:48:17;56.80;;;23.70;;
55190;SDS011;41070;50.360;18.742;2023-03-01T02:50:46;46.60;;;21.50;;
55190;SDS011;41070;50.360;18.742;2023-03-01T02:53:23;46.20;;;20.70;;
55190;SDS011;41070;50.360;18.742;2023-03-01T02:56:00;51.20;;;21.90;;
55190;SDS011;41070;50.360;18.742;2023-03-01T02:58:28;41.30;;;20.70;;
55190;SDS011;41070;50.360;18.742;2023-03-01T03:00:54;49.80;;;23.50;;
55190;SDS011;41070;50.360;18.742;2023-03-01T03:03:22;84.30;;;31.20;;
55190;SDS011;41070;50.360;18.742;2023-03-01T03:05:48;61.90;;;26.20;;
55190;SDS011;41070;50.360;18.742;2023-03-01T03:08:14;66.80;;;30.00;;
55190;SDS011;41070;50.360;18.742;2023-03-01T03:10:49;65.50;;;27.00;;
55190;SDS011;41070;50.360;18.742;2023-03-01T03:13:15;68.50;;;28.50;;
55190;SDS011;41070;50.360;18.742;2023-03-01T03:15:43;58.60;;;26.90;;
55190;SDS011;41070;50.360;18.742;2023-03-01T03:18:14;57.90;;;25.70;;
55190;SDS011;41070;50.360;18.742;2023-03-01T03:20:43;65.70;;;28.10;;
55190;SDS011;41070;50.360;18.742;2023-03-01T03:23:10;58.60;;;25.30;;
55190;SDS011;41070;50.360;18.742;2023-03-01T03:25:37;58.00;;;25.80;;
55190;SDS011;41070;50.360;18.742;2023-03-01T03:28:04;73.60;;;30.10;;
55190;SDS011;41070;50.360;18.742;2023-03-01T03:30:36;63.00;;;27.40;;
55190;SDS011;41070;50.360;18.742;2023-03-01T03:33:05;61.40;;;27.10;;
55190;SDS011;41070;50.360;18.742;2023-03-01T03:35:33;60.10;;;26.60;;
55190;SDS011;41070;50.360;18.742;2023-03-01T03:38:05;61.10;;;25.70;;
55190;SDS011;41070;50.360;18.742;2023-03-01T03:40:42;66.80;;;26.20;;
55190;SDS011;41070;50.360;18.742;2023-03-01T03:43:09;72.30;;;26.80;;
55190;SDS011;41070;50.360;18.742;2023-03-01T03:45:37;53.60;;;23.70;;
55190;SDS011;41070;50.360;18.742;2023-03-01T03:48:05;55.30;;;25.80;;
55190;SDS011;41070;50.360;18.742;2023-03-01T03:50:35;53.70;;;23.80;;
55190;SDS011;41070;50.360;18.742;2023-03-01T03:53:04;50.60;;;23.20;;
55190;SDS011;41070;50.360;18.742;2023-03-01T03:55:33;58.30;;;24.40;;
55190;SDS011;41070;50.360;18.742;2023-03-01T03:58:01;46.70;;;21.20;;
55190;SDS011;41070;50.360;18.742;2023-03-01T04:00:33;57.60;;;25.10;;
55190;SDS011;41070;50.360;18.742;2023-03-01T04:03:00;35.60;;;17.70;;
55190;SDS011;41070;50.360;18.742;2023-03-01T04:05:27;43.80;;;16.40;;
55190;SDS011;41070;50.360;18.742;2023-03-01T04:07:53;35.40;;;15.20;;
55190;SDS011;41070;50.360;18.742;2023-03-01T04:10:27;39.10;;;18.10;;
55190;SDS011;41070;50.360;18.742;2023-03-01T04:12:58;41.50;;;21.20;;
55190;SDS011;41070;50.360;18.742;2023-03-01T04:15:25;49.40;;;21.10;;
55190;SDS011;41070;50.360;18.742;2023-03-01T04:17:53;49.90;;;21.90;;
55190;SDS011;41070;50.360;18.742;2023-03-01T04:20:22;45.90;;;20.80;;
55190;SDS011;41070;50.360;18.742;2023-03-01T04:23:03;46.10;;;21.10;;
55190;SDS011;41070;50.360;18.742;2023-03-01T04:25:51;51.10;;;21.90;;
55190;SDS011;41070;50.360;18.742;2023-03-01T04:28:21;39.30;;;20.20;;
55190;SDS011;41070;50.360;18.742;2023-03-01T04:30:56;62.30;;;26.10;;
55190;SDS011;41070;50.360;18.742;2023-03-01T04:33:24;54.80;;;24.10;;
55190;SDS011;41070;50.360;18.742;2023-03-01T04:35:51;63.00;;;24.90;;
55190;SDS011;41070;50.360;18.742;2023-03-01T04:40:44;60.90;;;24.60;;
55190;SDS011;41070;50.360;18.742;2023-03-01T04:43:11;67.20;;;27.70;;
55190;SDS011;41070;50.360;18.742;2023-03-01T04:45:39;56.00;;;23.60;;
55190;SDS011;41070;50.360;18.742;2023-03-01T04:50:32;64.30;;;24.70;;
55190;SDS011;41070;50.360;18.742;2023-03-01T04:52:59;55.00;;;23.60;;
55190;SDS011;41070;50.360;18.742;2023-03-01T04:55:26;59.60;;;25.50;;
55190;SDS011;41070;50.360;18.742;2023-03-01T04:57:52;65.70;;;26.20;;
55190;SDS011;41070;50.360;18.742;2023-03-01T05:00:20;69.90;;;27.70;;
55190;SDS011;41070;50.360;18.742;2023-03-01T05:05:21;69.40;;;27.50;;
55190;SDS011;41070;50.360;18.742;2023-03-01T05:07:53;60.10;;;25.90;;
55190;SDS011;41070;50.360;18.742;2023-03-01T05:10:24;51.20;;;23.70;;
55190;SDS011;41070;50.360;18.742;2023-03-01T05:12:51;62.10;;;24.90;;
55190;SDS011;41070;50.360;18.742;2023-03-01T05:15:18;45.20;;;19.80;;
55190;SDS011;41070;50.360;18.742;2023-03-01T05:17:48;49.60;;;21.80;;
55190;SDS011;41070;50.360;18.742;2023-03-01T05:20:15;61.40;;;24.80;;
55190;SDS011;41070;50.360;18.742;2023-03-01T05:22:41;61.70;;;24.10;;
55190;SDS011;41070;50.360;18.742;2023-03-01T05:25:08;52.80;;;26.00;;
55190;SDS011;41070;50.360;18.742;2023-03-01T05:27:35;51.30;;;22.70;;
55190;SDS011;41070;50.360;18.742;2023-03-01T05:30:02;53.90;;;23.70;;
55190;SDS011;41070;50.360;18.742;2023-03-01T05:32:42;52.30;;;23.20;;
55190;SDS011;41070;50.360;18.742;2023-03-01T05:35:11;65.10;;;25.70;;
55190;SDS011;41070;50.360;18.742;2023-03-01T05:37:40;58.50;;;25.70;;
55190;SDS011;41070;50.360;18.742;2023-03-01T05:40:08;69.40;;;27.20;;
55190;SDS011;41070;50.360;18.742;2023-03-01T05:42:45;46.90;;;23.30;;
55190;SDS011;41070;50.360;18.742;2023-03-01T05:45:13;41.20;;;20.90;;
55190;SDS011;41070;50.360;18.742;2023-03-01T05:47:41;45.10;;;20.10;;
55190;SDS011;41070;50.360;18.742;2023-03-01T05:50:20;56.50;;;24.40;;
55190;SDS011;41070;50.360;18.742;2023-03-01T05:52:49;60.50;;;27.10;;
55190;SDS011;41070;50.360;18.742;2023-03-01T05:55:18;60.90;;;28.70;;
55190;SDS011;41070;50.360;18.742;2023-03-01T05:57:46;65.50;;;28.60;;
55190;SDS011;41070;50.360;18.742;2023-03-01T06:00:22;62.10;;;27.30;;
55190;SDS011;41070;50.360;18.742;2023-03-01T06:02:49;84.60;;;33.80;;
55190;SDS011;41070;50.360;18.742;2023-03-01T06:05:17;90.80;;;36.00;;
55190;SDS011;41070;50.360;18.742;2023-03-01T06:07:46;83.50;;;33.90;;
55190;SDS011;41070;50.360;18.742;2023-03-01T06:10:12;91.00;;;35.40;;
55190;SDS011;41070;50.360;18.742;2023-03-01T06:12:40;91.40;;;35.80;;
55190;SDS011;41070;50.360;18.742;2023-03-01T06:15:08;90.00;;;33.40;;
55190;SDS011;41070;50.360;18.742;2023-03-01T06:17:37;72.60;;;32.40;;
55190;SDS011;41070;50.360;18.742;2023-03-01T06:20:16;76.70;;;31.80;;
55190;SDS011;41070;50.360;18.742;2023-03-01T06:22:44;78.90;;;33.20;;
55190;SDS011;41070;50.360;18.742;2023-03-01T06:25:14;76.90;;;33.90;;
55190;SDS011;41070;50.360;18.742;2023-03-01T06:27:42;79.10;;;33.30;;
55190;SDS011;41070;50.360;18.742;2023-03-01T06:30:10;74.20;;;32.90;;
55190;SDS011;41070;50.360;18.742;2023-03-01T06:32:38;72.00;;;32.30;;
55190;SDS011;41070;50.360;18.742;2023-03-01T06:35:07;82.50;;;34.30;;
55190;SDS011;41070;50.360;18.742;2023-03-01T06:37:37;82.70;;;34.30;;
55190;SDS011;41070;50.360;18.742;2023-03-01T06:40:04;68.10;;;29.10;;
55190;SDS011;41070;50.360;18.742;2023-03-01T06:42:35;74.80;;;32.60;;
55190;SDS011;41070;50.360;18.742;2023-03-01T06:45:20;77.60;;;34.70;;
55190;SDS011;41070;50.360;18.742;2023-03-01T06:47:47;83.90;;;37.20;;
55190;SDS011;41070;50.360;18.742;2023-03-01T06:52:40;77.70;;;37.50;;
55190;SDS011;41070;50.360;18.742;2023-03-01T06:55:09;90.90;;;38.20;;
55190;SDS011;41070;50.360;18.742;2023-03-01T07:00:05;74.60;;;35.00;;
55190;SDS011;41070;50.360;18.742;2023-03-01T07:02:33;69.60;;;32.70;;
55190;SDS011;41070;50.360;18.742;2023-03-01T07:05:00;69.40;;;32.20;;
55190;SDS011;41070;50.360;18.742;2023-03-01T07:07:26;67.10;;;31.00;;
55190;SDS011;41070;50.360;18.742;2023-03-01T07:09:53;62.90;;;30.30;;
55190;SDS011;41070;50.360;18.742;2023-03-01T07:14:46;63.70;;;27.50;;
55190;SDS011;41070;50.360;18.742;2023-03-01T07:17:12;60.90;;;29.00;;
55190;SDS011;41070;50.360;18.742;2023-03-01T07:19:39;61.90;;;30.60;;
55190;SDS011;41070;50.360;18.742;2023-03-01T07:22:05;65.90;;;28.60;;
55190;SDS011;41070;50.360;18.742;2023-03-01T07:24:33;58.20;;;27.10;;
55190;SDS011;41070;50.360;18.742;2023-03-01T07:27:00;60.60;;;29.30;;
55190;SDS011;41070;50.360;18.742;2023-03-01T07:29:26;58.70;;;28.00;;
55190;SDS011;41070;50.360;18.742;2023-03-01T07:31:54;62.00;;;27.90;;
55190;SDS011;41070;50.360;18.742;2023-03-01T07:34:20;70.80;;;30.50;;
55190;SDS011;41070;50.360;18.742;2023-03-01T07:36:47;65.70;;;29.70;;
55190;SDS011;41070;50.360;18.742;2023-03-01T07:39:13;65.70;;;30.80;;
55190;SDS011;41070;50.360;18.742;2023-03-01T07:41:39;76.50;;;34.10;;
55190;SDS011;41070;50.360;18.742;2023-03-01T07:44:06;66.70;;;31.50;;
55190;SDS011;41070;50.360;18.742;2023-03-01T07:46:32;61.30;;;28.30;;
55190;SDS011;41070;50.360;18.742;2023-03-01T07:51:25;55.90;;;27.60;;
55190;SDS011;41070;50.360;18.742;2023-03-01T07:53:51;67.90;;;30.70;;
55190;SDS011;41070;50.360;18.742;2023-03-01T07:56:17;62.90;;;29.80;;
55190;SDS011;41070;50.360;18.742;2023-03-01T07:58:45;63.70;;;29.30;;
55190;SDS011;41070;50.360;18.742;2023-03-01T08:01:12;70.60;;;30.50;;
55190;SDS011;41070;50.360;18.742;2023-03-01T08:03:43;50.10;;;24.40;;
55190;SDS011;41070;50.360;18.742;2023-03-01T08:06:52;54.50;;;24.50;;
55190;SDS011;41070;50.360;18.742;2023-03-01T08:09:22;46.60;;;22.40;;
55190;SDS011;41070;50.360;18.742;2023-03-01T08:11:48;61.50;;;28.50;;
55190;SDS011;41070;50.360;18.742;2023-03-01T08:14:14;50.30;;;23.90;;
55190;SDS011;41070;50.360;18.742;2023-03-01T08:16:40;45.30;;;22.60;;
55190;SDS011;41070;50.360;18.742;2023-03-01T08:19:08;101.50;;;36.70;;
55190;SDS011;41070;50.360;18.742;2023-03-01T08:21:36;61.30;;;26.50;;
55190;SDS011;41070;50.360;18.742;2023-03-01T08:24:03;51.10;;;21.90;;
55190;SDS011;41070;50.360;18.742;2023-03-01T08:26:31;66.50;;;29.70;;
55190;SDS011;41070;50.360;18.742;2023-03-01T08:28:59;46.70;;;22.70;;
55190;SDS011;41070;50.360;18.742;2023-03-01T08:31:27;54.00;;;25.80;;
55190;SDS011;41070;50.360;18.742;2023-03-01T08:33:59;122.90;;;49.00;;
55190;SDS011;41070;50.360;18.742;2023-03-01T08:36:33;65.40;;;28.00;;
55190;SDS011;41070;50.360;18.742;2023-03-01T08:39:03;54.90;;;27.00;;
55190;SDS011;41070;50.360;18.742;2023-03-01T08:41:30;48.40;;;22.90;;
55190;SDS011;41070;50.360;18.742;2023-03-01T08:43:58;42.90;;;20.40;;
55190;SDS011;41070;50.360;18.742;2023-03-01T08:46:32;47.40;;;25.10;;
55190;SDS011;41070;50.360;18.742;2023-03-01T08:49:35;39.00;;;19.00;;
55190;SDS011;41070;50.360;18.742;2023-03-01T08:51:55;31.70;;;16.50;;
55190;SDS011;41070;50.360;18.742;2023-03-01T08:54:21;55.90;;;23.80;;
55190;SDS011;41070;50.360;18.742;2023-03-01T08:59:15;28.70;;;14.20;;
55190;SDS011;41070;50.360;18.742;2023-03-01T09:01:45;34.60;;;16.70;;
55190;SDS011;41070;50.360;18.742;2023-03-01T09:04:11;39.70;;;17.20;;
55190;SDS011;41070;50.360;18.742;2023-03-01T09:06:38;35.10;;;15.90;;
55190;SDS011;41070;50.360;18.742;2023-03-01T09:09:04;31.30;;;15.80;;
55190;SDS011;41070;50.360;18.742;2023-03-01T09:11:32;34.10;;;17.50;;
55190;SDS011;41070;50.360;18.742;2023-03-01T09:13:59;44.30;;;19.10;;
55190;SDS011;41070;50.360;18.742;2023-03-01T09:16:25;35.90;;;18.30;;
55190;SDS011;41070;50.360;18.742;2023-03-01T09:18:52;42.30;;;20.00;;
55190;SDS011;41070;50.360;18.742;2023-03-01T09:21:21;47.20;;;20.80;;
55190;SDS011;41070;50.360;18.742;2023-03-01T09:23:50;46.40;;;21.60;;
55190;SDS011;41070;50.360;18.742;2023-03-01T09:26:19;46.80;;;20.20;;
55190;SDS011;41070;50.360;18.742;2023-03-01T09:28:51;50.00;;;20.70;;
55190;SDS011;41070;50.360;18.742;2023-03-01T09:31:20;33.80;;;16.50;;
55190;SDS011;41070;50.360;18.742;2023-03-01T09:33:48;29.40;;;15.60;;
55190;SDS011;41070;50.360;18.742;2023-03-01T09:36:18;28.40;;;14.40;;
55190;SDS011;41070;50.360;18.742;2023-03-01T09:38:47;28.60;;;14.60;;
55190;SDS011;41070;50.360;18.742;2023-03-01T09:43:45;30.60;;;14.90;;
55190;SDS011;41070;50.360;18.742;2023-03-01T09:46:14;32.20;;;14.90;;
55190;SDS011;41070;50.360;18.742;2023-03-01T09:48:52;31.60;;;14.70;;
55190;SDS011;41070;50.360;18.742;2023-03-01T09:51:30;28.10;;;14.50;;
55190;SDS011;41070;50.360;18.742;2023-03-01T09:54:00;23.30;;;12.90;;
55190;SDS011;41070;50.360;18.742;2023-03-01T09:56:32;22.40;;;11.80;;
55190;SDS011;41070;50.360;18.742;2023-03-01T09:59:16;26.50;;;13.10;;
55190;SDS011;41070;50.360;18.742;2023-03-01T10:02:04;24.20;;;12.20;;
55190;SDS011;41070;50.360;18.742;2023-03-01T10:04:48;31.50;;;14.40;;
55190;SDS011;41070;50.360;18.742;2023-03-01T10:07:21;29.70;;;14.40;;
55190;SDS011;41070;50.360;18.742;2023-03-01T10:09:57;24.30;;;11.90;;
55190;SDS011;41070;50.360;18.742;2023-03-01T10:12:27;26.20;;;13.90;;
55190;SDS011;41070;50.360;18.742;2023-03-01T10:15:17;37.10;;;14.10;;
55190;SDS011;41070;50.360;18.742;2023-03-01T10:17:56;32.30;;;12.00;;
55190;SDS011;41070;50.360;18.742;2023-03-01T10:23:33;41.70;;;17.80;;
55190;SDS011;41070;50.360;18.742;2023-03-01T10:26:27;24.10;;;10.60;;
55190;SDS011;41070;50.360;18.742;2023-03-01T10:29:17;21.40;;;11.30;;
55190;SDS011;41070;50.360;18.742;2023-03-01T10:31:52;23.00;;;10.70;;
55190;SDS011;41070;50.360;18.742;2023-03-01T10:40:07;21.00;;;11.00;;
55190;SDS011;41070;50.360;18.742;2023-03-01T10:42:46;17.80;;;8.20;;
55190;SDS011;41070;50.360;18.742;2023-03-01T10:48:25;19.30;;;9.20;;
55190;SDS011;41070;50.360;18.742;2023-03-01T10:56:00;20.80;;;10.20;;
55190;SDS011;41070;50.360;18.742;2023-03-01T10:58:35;25.20;;;11.90;;
55190;SDS011;41070;50.360;18.742;2023-03-01T11:04:14;65.20;;;24.50;;
55190;SDS011;41070;50.360;18.742;2023-03-01T11:06:41;85.80;;;31.70;;
55190;SDS011;41070;50.360;18.742;2023-03-01T11:13:06;24.20;;;10.70;;
55190;SDS011;41070;50.360;18.742;2023-03-01T11:15:40;21.20;;;11.20;;
55190;SDS011;41070;50.360;18.742;2023-03-01T11:18:15;21.50;;;10.40;;
55190;SDS011;41070;50.360;18.742;2023-03-01T11:20:49;25.60;;;10.80;;
55190;SDS011;41070;50.360;18.742;2023-03-01T11:23:22;31.40;;;12.70;;
55190;SDS011;41070;50.360;18.742;2023-03-01T11:25:57;29.80;;;13.40;;
55190;SDS011;41070;50.360;18.742;2023-03-01T11:29:26;22.40;;;12.20;;
55190;SDS011;41070;50.360;18.742;2023-03-01T11:31:58;25.20;;;11.80;;
55190;SDS011;41070;50.360;18.742;2023-03-01T11:34:36;18.30;;;10.60;;
55190;SDS011;41070;50.360;18.742;2023-03-01T11:37:50;29.20;;;12.20;;
55190;SDS011;41070;50.360;18.742;2023-03-01T11:40:21;22.10;;;12.30;;
55190;SDS011;41070;50.360;18.742;2023-03-01T11:52:00;23.20;;;12.10;;
55190;SDS011;41070;50.360;18.742;2023-03-01T12:04:55;10.00;;;6.20;;
55190;SDS011;41070;50.360;18.742;2023-03-01T12:11:29;25.90;;;14.20;;
55190;SDS011;41070;50.360;18.742;2023-03-01T12:17:40;19.70;;;11.50;;
55190;SDS011;41070;50.360;18.742;2023-03-01T12:20:51;20.00;;;11.00;;
55190;SDS011;41070;50.360;18.742;2023-03-01T16:14:24;22.20;;;10.40;;
55190;SDS011;41070;50.360;18.742;2023-03-01T16:16:53;28.90;;;13.50;;
55190;SDS011;41070;50.360;18.742;2023-03-01T16:21:46;35.90;;;16.60;;
55190;SDS011;41070;50.360;18.742;2023-03-01T16:24:14;36.80;;;15.50;;
55190;SDS011;41070;50.360;18.742;2023-03-01T16:26:41;39.90;;;15.10;;
55190;SDS011;41070;50.360;18.742;2023-03-01T16:29:08;41.60;;;16.10;;
55190;SDS011;41070;50.360;18.742;2023-03-01T16:31:35;35.20;;;15.90;;
55190;SDS011;41070;50.360;18.742;2023-03-01T16:34:01;39.70;;;16.10;;
55190;SDS011;41070;50.360;18.742;2023-03-01T16:36:28;39.80;;;16.50;;
55190;SDS011;41070;50.360;18.742;2023-03-01T16:38:55;37.10;;;16.80;;
55190;SDS011;41070;50.360;18.742;2023-03-01T16:42:45;54.80;;;24.80;;
55190;SDS011;41070;50.360;18.742;2023-03-01T16:45:12;61.50;;;28.20;;
55190;SDS011;41070;50.360;18.742;2023-03-01T16:47:39;74.40;;;30.00;;
55190;SDS011;41070;50.360;18.742;2023-03-01T16:50:05;76.40;;;29.20;;
55190;SDS011;41070;50.360;18.742;2023-03-01T16:54:59;58.30;;;25.50;;
55190;SDS011;41070;50.360;18.742;2023-03-01T16:59:52;65.20;;;29.40;;
55190;SDS011;41070;50.360;18.742;2023-03-01T17:02:19;68.70;;;30.90;;
55190;SDS011;41070;50.360;18.742;2023-03-01T17:04:51;66.60;;;30.90;;
55190;SDS011;41070;50.360;18.742;2023-03-01T17:07:21;62.20;;;29.00;;
55190;SDS011;41070;50.360;18.742;2023-03-01T17:09:48;51.20;;;25.80;;
55190;SDS011;41070;50.360;18.742;2023-03-01T17:12:14;54.90;;;23.60;;
55190;SDS011;41070;50.360;18.742;2023-03-01T17:14:41;43.70;;;23.00;;
55190;SDS011;41070;50.360;18.742;2023-03-01T17:17:10;41.90;;;21.60;;
55190;SDS011;41070;50.360;18.742;2023-03-01T17:20:24;48.70;;;23.60;;
55190;SDS011;41070;50.360;18.742;2023-03-01T17:22:44;40.80;;;22.50;;
55190;SDS011;41070;50.360;18.742;2023-03-01T17:25:21;52.50;;;24.50;;
55190;SDS011;41070;50.360;18.742;2023-03-01T17:27:47;54.40;;;22.90;;
55190;SDS011;41070;50.360;18.742;2023-03-01T17:32:41;37.90;;;18.30;;
55190;SDS011;41070;50.360;18.742;2023-03-01T17:35:19;40.00;;;19.10;;
55190;SDS011;41070;50.360;18.742;2023-03-01T17:37:49;37.40;;;18.70;;
55190;SDS011;41070;50.360;18.742;2023-03-01T17:40:15;37.30;;;17.40;;
55190;SDS011;41070;50.360;18.742;2023-03-01T17:45:08;57.40;;;23.20;;
55190;SDS011;41070;50.360;18.742;2023-03-01T17:47:34;46.50;;;20.20;;
55190;SDS011;41070;50.360;18.742;2023-03-01T17:52:29;83.10;;;29.40;;
55190;SDS011;41070;50.360;18.742;2023-03-01T17:55:03;100.80;;;33.70;;
55190;SDS011;41070;50.360;18.742;2023-03-01T17:57:38;68.70;;;27.60;;
55190;SDS011;41070;50.360;18.742;2023-03-01T18:00:07;45.70;;;20.20;;
55190;SDS011;41070;50.360;18.742;2023-03-01T18:02:39;34.90;;;16.60;;
55190;SDS011;41070;50.360;18.742;2023-03-01T18:05:07;39.40;;;18.20;;
55190;SDS011;41070;50.360;18.742;2023-03-01T18:07:38;43.40;;;18.30;;
55190;SDS011;41070;50.360;18.742;2023-03-01T18:10:05;41.40;;;19.60;;
55190;SDS011;41070;50.360;18.742;2023-03-01T18:15:02;45.80;;;19.40;;
55190;SDS011;41070;50.360;18.742;2023-03-01T18:17:30;62.80;;;27.10;;
55190;SDS011;41070;50.360;18.742;2023-03-01T18:22:23;68.40;;;24.50;;
55190;SDS011;41070;50.360;18.742;2023-03-01T18:24:50;67.90;;;27.10;;
55190;SDS011;41070;50.360;18.742;2023-03-01T18:27:18;69.60;;;29.10;;
55190;SDS011;41070;50.360;18.742;2023-03-01T18:29:54;59.10;;;25.30;;
55190;SDS011;41070;50.360;18.742;2023-03-01T18:32:21;52.90;;;22.30;;
55190;SDS011;41070;50.360;18.742;2023-03-01T18:34:49;42.00;;;19.60;;
55190;SDS011;41070;50.360;18.742;2023-03-01T18:37:17;44.40;;;20.40;;
55190;SDS011;41070;50.360;18.742;2023-03-01T18:42:09;39.80;;;19.20;;
55190;SDS011;41070;50.360;18.742;2023-03-01T18:44:36;50.30;;;21.90;;
55190;SDS011;41070;50.360;18.742;2023-03-01T18:47:03;50.50;;;21.20;;
55190;SDS011;41070;50.360;18.742;2023-03-01T18:49:29;41.10;;;18.70;;
55190;SDS011;41070;50.360;18.742;2023-03-01T18:52:11;44.60;;;19.00;;
55190;SDS011;41070;50.360;18.742;2023-03-01T18:55:15;43.40;;;18.50;;
55190;SDS011;41070;50.360;18.742;2023-03-01T18:58:22;47.80;;;20.70;;
55190;SDS011;41070;50.360;18.742;2023-03-01T19:01:04;53.40;;;23.10;;
55190;SDS011;41070;50.360;18.742;2023-03-01T19:03:33;42.60;;;21.40;;
55190;SDS011;41070;50.360;18.742;2023-03-01T19:06:06;41.60;;;20.00;;
55190;SDS011;41070;50.360;18.742;2023-03-01T19:08:33;39.80;;;19.40;;
55190;SDS011;41070;50.360;18.742;2023-03-01T19:11:08;36.60;;;18.00;;
55190;SDS011;41070;50.360;18.742;2023-03-01T19:13:37;49.10;;;22.80;;
55190;SDS011;41070;50.360;18.742;2023-03-01T19:16:06;43.80;;;21.00;;
55190;SDS011;41070;50.360;18.742;2023-03-01T19:18:33;57.90;;;27.30;;
55190;SDS011;41070;50.360;18.742;2023-03-01T19:21:01;60.50;;;27.60;;
55190;SDS011;41070;50.360;18.742;2023-03-01T19:23:37;74.00;;;31.80;;
55190;SDS011;41070;50.360;18.742;2023-03-01T19:26:13;69.60;;;29.80;;
55190;SDS011;41070;50.360;18.742;2023-03-01T19:28:45;57.30;;;26.70;;
55190;SDS011;41070;50.360;18.742;2023-03-01T19:31:26;64.60;;;27.30;;
55190;SDS011;41070;50.360;18.742;2023-03-01T19:33:55;51.70;;;23.70;;
55190;SDS011;41070;50.360;18.742;2023-03-01T19:36:45;58.70;;;24.80;;
55190;SDS011;41070;50.360;18.742;2023-03-01T19:39:31;68.40;;;29.30;;
55190;SDS011;41070;50.360;18.742;2023-03-01T19:41:58;62.70;;;28.00;;
55190;SDS011;41070;50.360;18.742;2023-03-01T19:44:27;51.80;;;23.20;;
55190;SDS011;41070;50.360;18.742;2023-03-01T19:47:01;48.00;;;21.40;;
55190;SDS011;41070;50.360;18.742;2023-03-01T19:50:06;52.00;;;22.90;;
55190;SDS011;41070;50.360;18.742;2023-03-01T19:52:54;69.00;;;27.70;;
55190;SDS011;41070;50.360;18.742;2023-03-01T19:55:21;80.60;;;33.00;;
55190;SDS011;41070;50.360;18.742;2023-03-01T19:57:51;78.50;;;30.60;;
55190;SDS011;41070;50.360;18.742;2023-03-01T20:00:18;66.60;;;28.30;;
55190;SDS011;41070;50.360;18.742;2023-03-01T20:02:51;87.90;;;34.60;;
55190;SDS011;41070;50.360;18.742;2023-03-01T20:05:17;96.00;;;36.90;;
55190;SDS011;41070;50.360;18.742;2023-03-01T20:07:44;87.90;;;38.00;;
55190;SDS011;41070;50.360;18.742;2023-03-01T20:10:10;87.00;;;36.40;;
55190;SDS011;41070;50.360;18.742;2023-03-01T20:12:38;90.50;;;36.50;;